sensor_id;sensor_type;location;lat;lon;timestamp;pressure;altitude;pressure_sealevel;temperature;humidity
55466;BME280;41329;41.594;23.810;2022-08-23T00:01:54;94695.81;;;20.76;73.61
55466;BME280;41329;41.594;23.810;2022-08-23T00:04:26;94688.41;;;20.70;73.28
55466;BME280;41329;41.594;23.810;2022-08-23T00:06:54;94672.91;;;20.65;72.99
55466;BME280;41329;41.594;23.810;2022-08-23T00:09:21;94696.16;;;20.78;73.07
55466;BME280;41329;41.594;23.810;2022-08-23T00:11:54;94693.13;;;20.73;72.67
55466;BME280;41329;41.594;23.810;2022-08-23T00:14:31;94671.56;;;20.57;72.63
55466;BME280;41329;41.594;23.810;2022-08-23T00:16:57;94687.28;;;20.67;72.35
55466;BME280;41329;41.594;23.810;2022-08-23T00:19:25;94674.38;;;20.57;72.14
55466;BME280;41329;41.594;23.810;2022-08-23T00:21:52;94688.66;;;20.63;71.90
55466;BME280;41329;41.594;23.810;2022-08-23T00:24:19;94679.09;;;20.60;72.30
55466;BME280;41329;41.594;23.810;2022-08-23T00:29:49;94644.38;;;20.29;71.76
55466;BME280;41329;41.594;23.810;2022-08-23T00:32:20;94694.94;;;20.54;72.24
55466;BME280;41329;41.594;23.810;2022-08-23T00:34:46;94681.03;;;20.51;72.49
55466;BME280;41329;41.594;23.810;2022-08-23T00:37:11;94679.22;;;20.44;72.74
55466;BME280;41329;41.594;23.810;2022-08-23T00:39:38;94669.69;;;20.42;72.90
55466;BME280;41329;41.594;23.810;2022-08-23T00:42:43;94683.47;;;20.49;72.86
55466;BME280;41329;41.594;23.810;2022-08-23T00:46:02;94694.84;;;20.45;72.72
55466;BME280;41329;41.594;23.810;2022-08-23T00:48:48;94679.91;;;20.36;72.83
55466;BME280;41329;41.594;23.810;2022-08-23T00:51:21;94690.13;;;20.42;72.83
55466;BME280;41329;41.594;23.810;2022-08-23T00:53:58;94686.19;;;20.40;72.77
55466;BME280;41329;41.594;23.810;2022-08-23T00:56:29;94685.28;;;20.30;73.13
55466;BME280;41329;41.594;23.810;2022-08-23T00:58:56;94659.66;;;20.16;73.32
55466;BME280;41329;41.594;23.810;2022-08-23T01:01:21;94680.22;;;20.25;72.89
55466;BME280;41329;41.594;23.810;2022-08-23T01:03:52;94680.00;;;20.20;72.54
55466;BME280;41329;41.594;23.810;2022-08-23T01:06:25;94677.31;;;20.16;72.73
55466;BME280;41329;41.594;23.810;2022-08-23T01:08:57;94628.28;;;19.80;72.67
55466;BME280;41329;41.594;23.810;2022-08-23T01:11:33;94679.63;;;20.05;72.76
55466;BME280;41329;41.594;23.810;2022-08-23T01:14:09;94675.38;;;20.01;72.79
55466;BME280;41329;41.594;23.810;2022-08-23T01:16:40;94688.03;;;19.93;73.67
55466;BME280;41329;41.594;23.810;2022-08-23T01:19:18;94695.22;;;19.81;73.88
55466;BME280;41329;41.594;23.810;2022-08-23T01:21:52;94691.59;;;19.81;73.73
55466;BME280;41329;41.594;23.810;2022-08-23T01:24:19;94692.94;;;19.76;73.97
55466;BME280;41329;41.594;23.810;2022-08-23T01:26:46;94699.72;;;19.79;73.87
55466;BME280;41329;41.594;23.810;2022-08-23T01:29:12;94698.56;;;19.76;74.10
55466;BME280;41329;41.594;23.810;2022-08-23T01:31:38;94717.00;;;19.77;74.45
55466;BME280;41329;41.594;23.810;2022-08-23T01:34:07;94715.41;;;19.76;74.48
55466;BME280;41329;41.594;23.810;2022-08-23T01:36:33;94705.97;;;19.70;74.58
55466;BME280;41329;41.594;23.810;2022-08-23T01:39:00;94713.06;;;19.75;74.54
55466;BME280;41329;41.594;23.810;2022-08-23T01:41:25;94714.63;;;19.76;74.25
55466;BME280;41329;41.594;23.810;2022-08-23T01:43:51;94716.63;;;19.75;74.48
55466;BME280;41329;41.594;23.810;2022-08-23T01:46:20;94702.47;;;19.66;74.39
55466;BME280;41329;41.594;23.810;2022-08-23T01:48:47;94707.44;;;19.75;74.34
55466;BME280;41329;41.594;23.810;2022-08-23T01:51:16;94704.63;;;19.75;74.20
55466;BME280;41329;41.594;23.810;2022-08-23T01:53:43;94704.03;;;19.67;74.49
55466;BME280;41329;41.594;23.810;2022-08-23T01:56:09;94708.06;;;19.66;74.87
55466;BME280;41329;41.594;23.810;2022-08-23T01:58:35;94688.31;;;19.57;75.19
55466;BME280;41329;41.594;23.810;2022-08-23T02:01:04;94697.41;;;19.61;75.13
55466;BME280;41329;41.594;23.810;2022-08-23T02:03:31;94713.50;;;19.73;75.42
55466;BME280;41329;41.594;23.810;2022-08-23T02:05:57;94714.63;;;19.76;75.27
55466;BME280;41329;41.594;23.810;2022-08-23T02:08:23;94706.66;;;19.74;74.96
55466;BME280;41329;41.594;23.810;2022-08-23T02:11:13;94721.00;;;19.76;74.55
55466;BME280;41329;41.594;23.810;2022-08-23T02:13:40;94705.28;;;19.66;74.26
55466;BME280;41329;41.594;23.810;2022-08-23T02:16:06;94710.69;;;19.73;74.57
55466;BME280;41329;41.594;23.810;2022-08-23T02:18:33;94708.56;;;19.77;74.47
55466;BME280;41329;41.594;23.810;2022-08-23T02:20:59;94709.78;;;19.76;74.27
55466;BME280;41329;41.594;23.810;2022-08-23T02:23:25;94707.09;;;19.73;74.34
55466;BME280;41329;41.594;23.810;2022-08-23T02:25:51;94688.88;;;19.65;74.67
55466;BME280;41329;41.594;23.810;2022-08-23T02:28:18;94691.25;;;19.66;74.67
55466;BME280;41329;41.594;23.810;2022-08-23T02:30:44;94688.69;;;19.72;74.76
55466;BME280;41329;41.594;23.810;2022-08-23T02:33:10;94695.28;;;19.65;74.99
55466;BME280;41329;41.594;23.810;2022-08-23T02:35:37;94680.00;;;19.54;75.03
55466;BME280;41329;41.594;23.810;2022-08-23T02:38:05;94691.91;;;19.58;75.37
55466;BME280;41329;41.594;23.810;2022-08-23T02:40:30;94714.25;;;19.61;75.17
55466;BME280;41329;41.594;23.810;2022-08-23T02:42:56;94718.63;;;19.62;75.08
55466;BME280;41329;41.594;23.810;2022-08-23T02:45:25;94729.06;;;19.62;74.67
55466;BME280;41329;41.594;23.810;2022-08-23T02:47:50;94715.66;;;19.41;74.99
55466;BME280;41329;41.594;23.810;2022-08-23T02:50:17;94735.06;;;19.48;75.23
55466;BME280;41329;41.594;23.810;2022-08-23T02:52:42;94733.38;;;19.50;75.23
55466;BME280;41329;41.594;23.810;2022-08-23T02:55:08;94720.88;;;19.39;75.39
55466;BME280;41329;41.594;23.810;2022-08-23T02:57:34;94736.56;;;19.52;75.23
55466;BME280;41329;41.594;23.810;2022-08-23T03:00:00;94728.69;;;19.47;75.08
55466;BME280;41329;41.594;23.810;2022-08-23T03:02:26;94710.53;;;19.36;75.30
55466;BME280;41329;41.594;23.810;2022-08-23T03:04:51;94726.88;;;19.41;74.99
55466;BME280;41329;41.594;23.810;2022-08-23T03:07:17;94730.00;;;19.43;75.52
55466;BME280;41329;41.594;23.810;2022-08-23T03:09:43;94659.88;;;18.98;76.00
55466;BME280;41329;41.594;23.810;2022-08-23T03:12:08;94727.63;;;19.41;76.11
55466;BME280;41329;41.594;23.810;2022-08-23T03:14:35;94720.34;;;19.44;76.01
55466;BME280;41329;41.594;23.810;2022-08-23T03:17:03;94735.63;;;19.43;75.90
55466;BME280;41329;41.594;23.810;2022-08-23T03:19:28;94743.59;;;19.44;75.96
55466;BME280;41329;41.594;23.810;2022-08-23T03:21:54;94729.31;;;19.39;75.99
55466;BME280;41329;41.594;23.810;2022-08-23T03:24:20;94690.34;;;19.12;76.17
55466;BME280;41329;41.594;23.810;2022-08-23T03:26:46;94739.66;;;19.42;76.12
55466;BME280;41329;41.594;23.810;2022-08-23T03:29:12;94736.84;;;19.42;76.00
55466;BME280;41329;41.594;23.810;2022-08-23T03:31:37;94749.97;;;19.45;75.95
55466;BME280;41329;41.594;23.810;2022-08-23T03:34:04;94734.22;;;19.35;75.75
55466;BME280;41329;41.594;23.810;2022-08-23T03:36:30;94758.38;;;19.45;75.84
55466;BME280;41329;41.594;23.810;2022-08-23T03:38:56;94757.03;;;19.37;75.70
55466;BME280;41329;41.594;23.810;2022-08-23T03:41:22;94776.38;;;19.47;75.64
55466;BME280;41329;41.594;23.810;2022-08-23T03:43:47;94780.41;;;19.46;75.92
55466;BME280;41329;41.594;23.810;2022-08-23T03:46:13;94779.97;;;19.48;76.07
55466;BME280;41329;41.594;23.810;2022-08-23T03:48:51;94779.09;;;19.51;76.02
55466;BME280;41329;41.594;23.810;2022-08-23T03:51:19;94767.28;;;19.43;76.03
55466;BME280;41329;41.594;23.810;2022-08-23T03:53:45;94771.78;;;19.53;76.31
55466;BME280;41329;41.594;23.810;2022-08-23T03:56:24;94774.50;;;19.57;76.59
55466;BME280;41329;41.594;23.810;2022-08-23T03:58:50;94762.34;;;19.47;76.61
55466;BME280;41329;41.594;23.810;2022-08-23T04:01:16;94777.22;;;19.60;76.25
55466;BME280;41329;41.594;23.810;2022-08-23T04:03:41;94777.22;;;19.60;76.06
55466;BME280;41329;41.594;23.810;2022-08-23T04:06:08;94764.88;;;19.58;76.01
55466;BME280;41329;41.594;23.810;2022-08-23T04:08:34;94761.25;;;19.57;76.03
55466;BME280;41329;41.594;23.810;2022-08-23T04:10:59;94774.31;;;19.64;75.67
55466;BME280;41329;41.594;23.810;2022-08-23T04:13:25;94752.59;;;19.52;75.68
55466;BME280;41329;41.594;23.810;2022-08-23T04:15:52;94772.31;;;19.64;76.16
55466;BME280;41329;41.594;23.810;2022-08-23T04:18:19;94771.06;;;19.65;76.29
55466;BME280;41329;41.594;23.810;2022-08-23T04:20:46;94785.53;;;19.64;76.02
55466;BME280;41329;41.594;23.810;2022-08-23T04:23:11;94784.84;;;19.60;76.04
55466;BME280;41329;41.594;23.810;2022-08-23T04:25:37;94784.00;;;19.47;76.35
55466;BME280;41329;41.594;23.810;2022-08-23T04:28:03;94790.31;;;19.51;76.78
55466;BME280;41329;41.594;23.810;2022-08-23T04:30:30;94793.81;;;19.55;76.72
55466;BME280;41329;41.594;23.810;2022-08-23T04:32:55;94788.88;;;19.59;77.15
55466;BME280;41329;41.594;23.810;2022-08-23T04:35:21;94793.16;;;19.63;77.11
55466;BME280;41329;41.594;23.810;2022-08-23T04:37:47;94802.38;;;19.64;76.89
55466;BME280;41329;41.594;23.810;2022-08-23T04:40:12;94804.84;;;19.62;77.25
55466;BME280;41329;41.594;23.810;2022-08-23T04:42:57;94773.31;;;19.10;77.58
55466;BME280;41329;41.594;23.810;2022-08-23T04:45:23;94819.00;;;19.10;79.08
55466;BME280;41329;41.594;23.810;2022-08-23T04:47:48;94827.56;;;19.03;79.95
55466;BME280;41329;41.594;23.810;2022-08-23T04:50:14;94825.47;;;19.07;80.17
55466;BME280;41329;41.594;23.810;2022-08-23T04:52:40;94831.16;;;18.88;80.97
55466;BME280;41329;41.594;23.810;2022-08-23T04:55:05;94831.69;;;18.83;81.67
55466;BME280;41329;41.594;23.810;2022-08-23T04:57:31;94838.41;;;18.69;82.91
55466;BME280;41329;41.594;23.810;2022-08-23T04:59:56;94840.66;;;18.58;83.81
55466;BME280;41329;41.594;23.810;2022-08-23T05:02:22;94836.50;;;18.47;84.65
55466;BME280;41329;41.594;23.810;2022-08-23T05:04:47;94844.34;;;18.55;84.75
55466;BME280;41329;41.594;23.810;2022-08-23T05:07:13;94837.59;;;18.69;84.32
55466;BME280;41329;41.594;23.810;2022-08-23T05:09:39;94834.22;;;18.77;84.13
55466;BME280;41329;41.594;23.810;2022-08-23T05:12:05;94828.88;;;18.83;83.88
55466;BME280;41329;41.594;23.810;2022-08-23T05:14:31;94835.19;;;19.03;83.13
55466;BME280;41329;41.594;23.810;2022-08-23T05:16:56;94803.13;;;19.04;82.77
55466;BME280;41329;41.594;23.810;2022-08-23T05:19:22;94832.25;;;19.26;82.41
55466;BME280;41329;41.594;23.810;2022-08-23T05:21:48;94810.25;;;19.24;82.24
55466;BME280;41329;41.594;23.810;2022-08-23T05:24:14;94831.78;;;19.43;81.83
55466;BME280;41329;41.594;23.810;2022-08-23T05:26:39;94816.38;;;19.35;81.48
55466;BME280;41329;41.594;23.810;2022-08-23T05:29:05;94839.69;;;19.48;80.95
55466;BME280;41329;41.594;23.810;2022-08-23T05:31:31;94856.94;;;19.47;80.23
55466;BME280;41329;41.594;23.810;2022-08-23T05:33:56;94859.94;;;19.40;80.15
55466;BME280;41329;41.594;23.810;2022-08-23T05:36:22;94858.78;;;19.37;79.93
55466;BME280;41329;41.594;23.810;2022-08-23T05:38:47;94867.13;;;19.41;79.71
55466;BME280;41329;41.594;23.810;2022-08-23T05:41:15;94878.34;;;19.41;80.01
55466;BME280;41329;41.594;23.810;2022-08-23T05:43:41;94871.69;;;19.35;80.23
55466;BME280;41329;41.594;23.810;2022-08-23T05:46:15;94882.09;;;19.50;80.21
55466;BME280;41329;41.594;23.810;2022-08-23T05:48:42;94882.47;;;19.52;80.23
55466;BME280;41329;41.594;23.810;2022-08-23T05:51:10;94888.34;;;19.58;80.05
55466;BME280;41329;41.594;23.810;2022-08-23T05:53:37;94885.78;;;19.63;79.79
55466;BME280;41329;41.594;23.810;2022-08-23T05:56:23;94888.84;;;19.69;79.68
55466;BME280;41329;41.594;23.810;2022-08-23T05:58:51;94887.28;;;19.68;79.74
55466;BME280;41329;41.594;23.810;2022-08-23T06:01:18;94892.78;;;19.71;80.08
55466;BME280;41329;41.594;23.810;2022-08-23T06:03:44;94882.47;;;19.68;79.93
55466;BME280;41329;41.594;23.810;2022-08-23T06:06:10;94900.47;;;19.83;79.79
55466;BME280;41329;41.594;23.810;2022-08-23T06:08:37;94897.13;;;19.88;79.92
55466;BME280;41329;41.594;23.810;2022-08-23T06:11:25;94903.00;;;19.94;80.13
55466;BME280;41329;41.594;23.810;2022-08-23T06:14:00;94886.72;;;19.89;79.93
55466;BME280;41329;41.594;23.810;2022-08-23T06:16:39;94900.63;;;19.92;79.39
55466;BME280;41329;41.594;23.810;2022-08-23T06:19:07;94895.56;;;19.87;79.13
55466;BME280;41329;41.594;23.810;2022-08-23T06:21:33;94904.69;;;19.91;79.40
55466;BME280;41329;41.594;23.810;2022-08-23T06:23:59;94909.00;;;19.96;79.34
55466;BME280;41329;41.594;23.810;2022-08-23T06:26:34;94891.19;;;19.86;79.66
55466;BME280;41329;41.594;23.810;2022-08-23T06:29:06;94902.38;;;20.02;80.04
55466;BME280;41329;41.594;23.810;2022-08-23T06:31:32;94896.78;;;20.02;80.46
55466;BME280;41329;41.594;23.810;2022-08-23T06:36:45;94906.06;;;20.15;80.60
55466;BME280;41329;41.594;23.810;2022-08-23T06:39:13;94898.78;;;20.18;80.53
55466;BME280;41329;41.594;23.810;2022-08-23T06:41:38;94899.09;;;20.20;80.28
55466;BME280;41329;41.594;23.810;2022-08-23T06:44:04;94882.69;;;20.18;80.61
55466;BME280;41329;41.594;23.810;2022-08-23T06:46:31;94885.84;;;20.20;80.40
55466;BME280;41329;41.594;23.810;2022-08-23T06:48:57;94882.38;;;20.29;80.07
55466;BME280;41329;41.594;23.810;2022-08-23T06:51:28;94883.75;;;20.37;79.52
55466;BME280;41329;41.594;23.810;2022-08-23T06:53:56;94882.31;;;20.32;78.88
55466;BME280;41329;41.594;23.810;2022-08-23T06:56:24;94883.84;;;20.21;78.66
55466;BME280;41329;41.594;23.810;2022-08-23T06:58:50;94891.63;;;20.29;78.48
55466;BME280;41329;41.594;23.810;2022-08-23T07:01:33;94895.91;;;20.34;78.23
55466;BME280;41329;41.594;23.810;2022-08-23T07:04:03;94909.31;;;20.42;78.19
55466;BME280;41329;41.594;23.810;2022-08-23T07:06:29;94919.09;;;20.38;78.31
55466;BME280;41329;41.594;23.810;2022-08-23T07:08:55;94917.59;;;20.33;78.55
55466;BME280;41329;41.594;23.810;2022-08-23T07:11:21;94916.03;;;20.32;78.73
55466;BME280;41329;41.594;23.810;2022-08-23T07:13:48;94906.53;;;20.26;78.92
55466;BME280;41329;41.594;23.810;2022-08-23T07:16:14;94904.50;;;20.14;78.85
55466;BME280;41329;41.594;23.810;2022-08-23T07:18:43;94932.91;;;20.16;79.18
55466;BME280;41329;41.594;23.810;2022-08-23T07:21:10;94935.19;;;20.21;79.47
55466;BME280;41329;41.594;23.810;2022-08-23T07:23:38;94937.66;;;20.19;78.76
55466;BME280;41329;41.594;23.810;2022-08-23T07:26:12;94931.31;;;20.31;78.73
55466;BME280;41329;41.594;23.810;2022-08-23T07:28:38;94931.53;;;20.37;78.84
55466;BME280;41329;41.594;23.810;2022-08-23T07:31:07;94934.97;;;20.44;79.06
55466;BME280;41329;41.594;23.810;2022-08-23T07:33:34;94924.00;;;20.34;79.28
55466;BME280;41329;41.594;23.810;2022-08-23T07:35:59;94907.03;;;20.37;79.77
55466;BME280;41329;41.594;23.810;2022-08-23T07:38:25;94919.69;;;20.58;80.04
55466;BME280;41329;41.594;23.810;2022-08-23T07:40:50;94906.53;;;20.55;80.30
55466;BME280;41329;41.594;23.810;2022-08-23T07:43:16;94924.13;;;20.71;79.91
55466;BME280;41329;41.594;23.810;2022-08-23T07:45:42;94933.59;;;20.77;79.58
55466;BME280;41329;41.594;23.810;2022-08-23T07:48:07;94927.84;;;20.81;79.23
55466;BME280;41329;41.594;23.810;2022-08-23T07:50:33;94933.19;;;20.91;78.81
55466;BME280;41329;41.594;23.810;2022-08-23T07:52:58;94924.63;;;20.95;79.24
55466;BME280;41329;41.594;23.810;2022-08-23T07:55:27;94924.53;;;20.98;79.15
55466;BME280;41329;41.594;23.810;2022-08-23T07:57:52;94933.19;;;21.04;78.67
55466;BME280;41329;41.594;23.810;2022-08-23T08:00:17;94911.59;;;21.01;78.48
55466;BME280;41329;41.594;23.810;2022-08-23T08:02:43;94917.25;;;21.26;79.97
55466;BME280;41329;41.594;23.810;2022-08-23T08:05:08;94911.38;;;21.33;79.79
55466;BME280;41329;41.594;23.810;2022-08-23T08:07:34;94904.50;;;21.46;80.82
55466;BME280;41329;41.594;23.810;2022-08-23T08:10:01;94883.78;;;21.53;80.74
55466;BME280;41329;41.594;23.810;2022-08-23T08:12:27;94902.56;;;21.81;80.85
55466;BME280;41329;41.594;23.810;2022-08-23T08:14:53;94899.41;;;21.91;79.79
55466;BME280;41329;41.594;23.810;2022-08-23T08:17:19;94899.78;;;22.02;78.51
55466;BME280;41329;41.594;23.810;2022-08-23T08:19:45;94887.47;;;22.09;76.48
55466;BME280;41329;41.594;23.810;2022-08-23T08:22:10;94887.97;;;22.07;74.39
55466;BME280;41329;41.594;23.810;2022-08-23T08:24:37;94878.84;;;22.03;74.85
55466;BME280;41329;41.594;23.810;2022-08-23T08:27:03;94893.84;;;22.22;75.05
55466;BME280;41329;41.594;23.810;2022-08-23T08:29:29;94897.69;;;22.28;74.96
55466;BME280;41329;41.594;23.810;2022-08-23T08:31:55;94900.72;;;22.33;73.95
55466;BME280;41329;41.594;23.810;2022-08-23T08:34:20;94889.94;;;22.41;74.00
55466;BME280;41329;41.594;23.810;2022-08-23T08:36:52;94889.94;;;22.41;72.12
55466;BME280;41329;41.594;23.810;2022-08-23T08:39:24;94886.72;;;22.30;70.67
55466;BME280;41329;41.594;23.810;2022-08-23T08:42:18;94884.94;;;22.23;70.77
55466;BME280;41329;41.594;23.810;2022-08-23T08:44:51;94885.22;;;22.38;72.43
55466;BME280;41329;41.594;23.810;2022-08-23T08:47:37;94887.69;;;22.48;72.52
55466;BME280;41329;41.594;23.810;2022-08-23T08:52:59;94884.81;;;22.61;69.50
55466;BME280;41329;41.594;23.810;2022-08-23T08:55:36;94852.34;;;22.56;71.73
55466;BME280;41329;41.594;23.810;2022-08-23T08:58:06;94871.31;;;22.86;72.81
55466;BME280;41329;41.594;23.810;2022-08-23T09:00:36;94869.19;;;22.99;72.38
55466;BME280;41329;41.594;23.810;2022-08-23T09:03:13;94866.75;;;23.11;70.86
55466;BME280;41329;41.594;23.810;2022-08-23T09:05:50;94878.19;;;23.07;68.67
55466;BME280;41329;41.594;23.810;2022-08-23T09:19:10;94912.47;;;23.67;70.28
55466;BME280;41329;41.594;23.810;2022-08-23T09:21:46;94918.28;;;23.63;66.84
55466;BME280;41329;41.594;23.810;2022-08-23T09:24:12;94915.22;;;23.40;67.64
55466;BME280;41329;41.594;23.810;2022-08-23T09:26:38;94923.50;;;23.34;67.25
55466;BME280;41329;41.594;23.810;2022-08-23T09:29:22;94871.84;;;22.94;66.67
55466;BME280;41329;41.594;23.810;2022-08-23T09:31:51;94919.25;;;23.30;66.25
55466;BME280;41329;41.594;23.810;2022-08-23T09:34:40;94916.59;;;23.05;66.72
55466;BME280;41329;41.594;23.810;2022-08-23T09:39:40;94916.59;;;23.05;66.55
55466;BME280;41329;41.594;23.810;2022-08-23T09:42:27;94911.72;;;23.05;66.21
55466;BME280;41329;41.594;23.810;2022-08-23T09:44:53;94885.88;;;22.85;65.60
55466;BME280;41329;41.594;23.810;2022-08-23T09:47:29;94910.69;;;22.90;65.84
55466;BME280;41329;41.594;23.810;2022-08-23T09:50:08;94902.03;;;22.63;65.86
55466;BME280;41329;41.594;23.810;2022-08-23T09:52:36;94912.81;;;22.77;67.37
55466;BME280;41329;41.594;23.810;2022-08-23T09:55:24;94897.81;;;22.89;66.04
55466;BME280;41329;41.594;23.810;2022-08-23T09:57:51;94912.50;;;23.06;65.21
55466;BME280;41329;41.594;23.810;2022-08-23T10:00:32;94914.91;;;23.16;64.88
55466;BME280;41329;41.594;23.810;2022-08-23T10:05:52;94912.88;;;23.47;64.54
55466;BME280;41329;41.594;23.810;2022-08-23T10:08:31;94917.66;;;23.68;63.42
55466;BME280;41329;41.594;23.810;2022-08-23T10:11:06;94894.44;;;23.73;59.85
55466;BME280;41329;41.594;23.810;2022-08-23T10:13:39;94912.63;;;23.63;59.96
55466;BME280;41329;41.594;23.810;2022-08-23T10:24:28;94909.50;;;24.28;57.27
55466;BME280;41329;41.594;23.810;2022-08-23T10:30:22;94904.78;;;24.52;58.38
55466;BME280;41329;41.594;23.810;2022-08-23T10:35:48;94898.22;;;24.64;56.89
55466;BME280;41329;41.594;23.810;2022-08-23T10:43:53;94919.53;;;25.01;56.45
55466;BME280;41329;41.594;23.810;2022-08-23T10:46:21;94918.13;;;24.96;55.81
55466;BME280;41329;41.594;23.810;2022-08-23T10:48:56;94914.34;;;25.08;55.57
55466;BME280;41329;41.594;23.810;2022-08-23T10:51:33;94912.47;;;24.96;56.16
55466;BME280;41329;41.594;23.810;2022-08-23T10:56:34;94883.03;;;25.12;55.96
55466;BME280;41329;41.594;23.810;2022-08-23T10:59:17;94907.34;;;25.36;54.62
55466;BME280;41329;41.594;23.810;2022-08-23T11:07:18;94882.00;;;25.42;55.11
55466;BME280;41329;41.594;23.810;2022-08-23T11:09:52;94882.56;;;25.55;55.51
55466;BME280;41329;41.594;23.810;2022-08-23T11:12:22;94874.69;;;25.59;53.66
55466;BME280;41329;41.594;23.810;2022-08-23T11:17:53;94877.78;;;25.70;54.71
55466;BME280;41329;41.594;23.810;2022-08-23T11:31:39;94878.91;;;26.19;53.00
55466;BME280;41329;41.594;23.810;2022-08-23T11:34:20;94861.59;;;26.41;53.24
55466;BME280;41329;41.594;23.810;2022-08-23T11:40:05;94864.09;;;26.77;52.15
55466;BME280;41329;41.594;23.810;2022-08-23T11:59:44;94837.09;;;26.67;49.83
55466;BME280;41329;41.594;23.810;2022-08-23T12:02:38;94813.59;;;26.66;52.16
55466;BME280;41329;41.594;23.810;2022-08-23T12:10:28;94787.78;;;26.93;51.11
55466;BME280;41329;41.594;23.810;2022-08-23T12:23:52;94789.00;;;27.07;49.62
55466;BME280;41329;41.594;23.810;2022-08-23T12:29:11;94780.00;;;27.08;50.08
55466;BME280;41329;41.594;23.810;2022-08-23T12:32:04;94776.09;;;27.20;50.13
55466;BME280;41329;41.594;23.810;2022-08-23T12:34:52;94784.81;;;27.17;49.78
55466;BME280;41329;41.594;23.810;2022-08-23T12:40:43;94795.00;;;27.09;50.38
55466;BME280;41329;41.594;23.810;2022-08-23T12:45:42;94795.84;;;27.44;50.56
55466;BME280;41329;41.594;23.810;2022-08-23T12:48:10;94793.44;;;27.57;50.35
55466;BME280;41329;41.594;23.810;2022-08-23T12:50:41;94787.00;;;27.56;47.97
55466;BME280;41329;41.594;23.810;2022-08-23T12:53:11;94782.56;;;27.55;46.90
55466;BME280;41329;41.594;23.810;2022-08-23T12:55:41;94768.78;;;27.48;47.72
55466;BME280;41329;41.594;23.810;2022-08-23T12:58:07;94774.25;;;27.52;48.12
55466;BME280;41329;41.594;23.810;2022-08-23T13:00:38;94776.97;;;27.61;49.18
55466;BME280;41329;41.594;23.810;2022-08-23T13:05:58;94761.03;;;28.04;48.72
55466;BME280;41329;41.594;23.810;2022-08-23T13:08:30;94761.22;;;28.20;47.86
55466;BME280;41329;41.594;23.810;2022-08-23T13:10:57;94753.63;;;28.12;44.63
55466;BME280;41329;41.594;23.810;2022-08-23T13:13:26;94743.47;;;28.05;45.38
55466;BME280;41329;41.594;23.810;2022-08-23T13:15:55;94754.97;;;28.16;45.21
55466;BME280;41329;41.594;23.810;2022-08-23T13:21:16;94762.56;;;28.25;44.85
55466;BME280;41329;41.594;23.810;2022-08-23T13:23:42;94751.94;;;28.00;45.47
55466;BME280;41329;41.594;23.810;2022-08-23T13:26:25;94737.97;;;28.02;45.68
55466;BME280;41329;41.594;23.810;2022-08-23T13:32:02;94757.88;;;28.22;46.16
55466;BME280;41329;41.594;23.810;2022-08-23T13:34:36;94760.72;;;28.22;42.66
55466;BME280;41329;41.594;23.810;2022-08-23T13:37:13;94747.63;;;28.30;45.95
55466;BME280;41329;41.594;23.810;2022-08-23T13:39:44;94744.06;;;28.35;44.58
55466;BME280;41329;41.594;23.810;2022-08-23T13:42:11;94761.56;;;28.48;43.54
55466;BME280;41329;41.594;23.810;2022-08-23T13:44:37;94766.53;;;28.53;43.82
55466;BME280;41329;41.594;23.810;2022-08-23T13:47:04;94761.91;;;28.35;43.62
55466;BME280;41329;41.594;23.810;2022-08-23T13:49:35;94767.22;;;28.42;43.80
55466;BME280;41329;41.594;23.810;2022-08-23T13:52:05;94768.03;;;28.48;43.45
55466;BME280;41329;41.594;23.810;2022-08-23T13:54:32;94770.50;;;28.61;45.36
55466;BME280;41329;41.594;23.810;2022-08-23T13:57:11;94759.34;;;28.57;44.26
55466;BME280;41329;41.594;23.810;2022-08-23T13:59:47;94766.88;;;28.60;43.89
55466;BME280;41329;41.594;23.810;2022-08-23T14:02:14;94775.34;;;28.55;42.43
55466;BME280;41329;41.594;23.810;2022-08-23T14:04:41;94771.50;;;28.58;43.46
55466;BME280;41329;41.594;23.810;2022-08-23T14:07:07;94774.19;;;28.67;44.62
55466;BME280;41329;41.594;23.810;2022-08-23T14:09:33;94773.47;;;28.72;42.94
55466;BME280;41329;41.594;23.810;2022-08-23T14:12:03;94771.09;;;28.70;43.12
55466;BME280;41329;41.594;23.810;2022-08-23T14:14:30;94774.25;;;28.72;42.32
55466;BME280;41329;41.594;23.810;2022-08-23T14:16:57;94765.88;;;28.63;42.46
55466;BME280;41329;41.594;23.810;2022-08-23T14:19:23;94780.16;;;28.69;41.00
55466;BME280;41329;41.594;23.810;2022-08-23T14:21:49;94771.84;;;28.65;41.03
55466;BME280;41329;41.594;23.810;2022-08-23T14:24:14;94774.06;;;28.81;42.30
55466;BME280;41329;41.594;23.810;2022-08-23T14:26:40;94762.50;;;28.90;40.82
55466;BME280;41329;41.594;23.810;2022-08-23T14:29:06;94771.09;;;28.96;40.78
55466;BME280;41329;41.594;23.810;2022-08-23T14:31:31;94767.31;;;29.04;40.55
55466;BME280;41329;41.594;23.810;2022-08-23T14:33:57;94763.75;;;29.09;39.41
55466;BME280;41329;41.594;23.810;2022-08-23T14:36:22;94762.03;;;29.23;39.51
55466;BME280;41329;41.594;23.810;2022-08-23T14:38:47;94748.66;;;29.34;39.08
55466;BME280;41329;41.594;23.810;2022-08-23T14:41:17;94754.72;;;29.47;37.72
55466;BME280;41329;41.594;23.810;2022-08-23T14:43:43;94759.22;;;29.65;38.97
55466;BME280;41329;41.594;23.810;2022-08-23T14:46:09;94749.31;;;29.55;35.43
55466;BME280;41329;41.594;23.810;2022-08-23T14:48:34;94751.19;;;29.63;36.84
55466;BME280;41329;41.594;23.810;2022-08-23T14:51:01;94763.78;;;29.88;37.67
55466;BME280;41329;41.594;23.810;2022-08-23T14:53:28;94767.56;;;30.16;40.14
55466;BME280;41329;41.594;23.810;2022-08-23T14:55:54;94766.88;;;30.37;38.29
55466;BME280;41329;41.594;23.810;2022-08-23T14:58:21;94758.09;;;30.52;38.38
55466;BME280;41329;41.594;23.810;2022-08-23T15:00:47;94750.09;;;30.67;38.99
55466;BME280;41329;41.594;23.810;2022-08-23T15:03:39;94759.47;;;30.89;32.72